sensor_id;sensor_type;location;lat;lon;timestamp;temperature;humidity
19892;DHT22;10108;50.142;8.724;2022-12-16T00:01:13;-0.80;99.90
19892;DHT22;10108;50.142;8.724;2022-12-16T00:03:40;-0.70;99.90
19892;DHT22;10108;50.142;8.724;2022-12-16T00:06:08;-0.70;99.90
19892;DHT22;10108;50.142;8.724;2022-12-16T00:08:37;-0.70;99.90
19892;DHT22;10108;50.142;8.724;2022-12-16T00:11:04;-0.70;99.90
19892;DHT22;10108;50.142;8.724;2022-12-16T00:13:32;-0.70;99.90
19892;DHT22;10108;50.142;8.724;2022-12-16T00:15:59;-0.70;99.90
19892;DHT22;10108;50.142;8.724;2022-12-16T00:18:25;-0.60;99.90
19892;DHT22;10108;50.142;8.724;2022-12-16T00:20:52;-0.70;99.90
19892;DHT22;10108;50.142;8.724;2022-12-16T00:23:19;-0.70;99.90
19892;DHT22;10108;50.142;8.724;2022-12-16T00:25:46;-0.70;99.90
19892;DHT22;10108;50.142;8.724;2022-12-16T00:28:13;-0.70;99.90
19892;DHT22;10108;50.142;8.724;2022-12-16T00:30:41;-0.70;99.90
19892;DHT22;10108;50.142;8.724;2022-12-16T00:33:07;-0.70;99.90
19892;DHT22;10108;50.142;8.724;2022-12-16T00:35:33;-0.70;99.90
19892;DHT22;10108;50.142;8.724;2022-12-16T00:38:00;-0.70;99.90
19892;DHT22;10108;50.142;8.724;2022-12-16T00:40:26;-0.60;99.90
19892;DHT22;10108;50.142;8.724;2022-12-16T00:42:52;-0.70;99.90
19892;DHT22;10108;50.142;8.724;2022-12-16T00:45:19;-0.80;99.90
19892;DHT22;10108;50.142;8.724;2022-12-16T00:47:47;-0.80;99.90
19892;DHT22;10108;50.142;8.724;2022-12-16T00:50:13;-0.80;99.90
19892;DHT22;10108;50.142;8.724;2022-12-16T00:52:40;-0.80;99.90
19892;DHT22;10108;50.142;8.724;2022-12-16T00:55:06;-0.80;99.90
19892;DHT22;10108;50.142;8.724;2022-12-16T00:57:35;-0.70;99.90
19892;DHT22;10108;50.142;8.724;2022-12-16T01:00:01;-0.70;99.90
19892;DHT22;10108;50.142;8.724;2022-12-16T01:02:30;-0.70;99.90
19892;DHT22;10108;50.142;8.724;2022-12-16T01:04:57;-0.60;99.90
19892;DHT22;10108;50.142;8.724;2022-12-16T01:07:23;-0.60;99.90
19892;DHT22;10108;50.142;8.724;2022-12-16T01:09:49;-0.60;99.90
19892;DHT22;10108;50.142;8.724;2022-12-16T01:12:15;-0.60;99.90
19892;DHT22;10108;50.142;8.724;2022-12-16T01:14:41;-0.50;99.90
19892;DHT22;10108;50.142;8.724;2022-12-16T01:17:07;-0.50;99.90
19892;DHT22;10108;50.142;8.724;2022-12-16T01:19:33;-0.60;99.90
19892;DHT22;10108;50.142;8.724;2022-12-16T01:22:00;-0.50;99.90
19892;DHT22;10108;50.142;8.724;2022-12-16T01:24:26;-0.60;99.90
19892;DHT22;10108;50.142;8.724;2022-12-16T01:26:52;-0.60;99.90
19892;DHT22;10108;50.142;8.724;2022-12-16T01:29:18;-0.60;99.90
19892;DHT22;10108;50.142;8.724;2022-12-16T01:31:44;-0.60;99.90
19892;DHT22;10108;50.142;8.724;2022-12-16T01:34:10;-0.60;99.90
19892;DHT22;10108;50.142;8.724;2022-12-16T01:36:36;-0.70;99.90
19892;DHT22;10108;50.142;8.724;2022-12-16T01:39:02;-0.60;99.90
19892;DHT22;10108;50.142;8.724;2022-12-16T01:41:28;-0.60;99.90
19892;DHT22;10108;50.142;8.724;2022-12-16T01:44:14;-0.60;99.90
19892;DHT22;10108;50.142;8.724;2022-12-16T01:46:41;-0.60;99.90
19892;DHT22;10108;50.142;8.724;2022-12-16T01:49:15;-0.50;99.90
19892;DHT22;10108;50.142;8.724;2022-12-16T01:51:44;-0.50;99.90
19892;DHT22;10108;50.142;8.724;2022-12-16T01:54:21;-0.50;99.90
19892;DHT22;10108;50.142;8.724;2022-12-16T01:56:55;-0.50;99.90
19892;DHT22;10108;50.142;8.724;2022-12-16T01:59:24;-0.50;99.90
19892;DHT22;10108;50.142;8.724;2022-12-16T02:01:51;-0.50;99.90
19892;DHT22;10108;50.142;8.724;2022-12-16T02:04:17;-0.50;99.90
19892;DHT22;10108;50.142;8.724;2022-12-16T02:06:43;-0.50;99.90
19892;DHT22;10108;50.142;8.724;2022-12-16T02:09:11;-0.50;99.90
19892;DHT22;10108;50.142;8.724;2022-12-16T02:17:30;-0.60;99.90
19892;DHT22;10108;50.142;8.724;2022-12-16T02:28:20;-0.70;99.90
19892;DHT22;10108;50.142;8.724;2022-12-16T02:30:59;-0.70;99.90
19892;DHT22;10108;50.142;8.724;2022-12-16T02:33:52;-0.70;99.90
19892;DHT22;10108;50.142;8.724;2022-12-16T02:36:45;-0.70;99.90
19892;DHT22;10108;50.142;8.724;2022-12-16T02:39:20;-0.70;99.90
19892;DHT22;10108;50.142;8.724;2022-12-16T02:41:52;-0.70;99.90
19892;DHT22;10108;50.142;8.724;2022-12-16T02:44:28;-0.70;99.90
19892;DHT22;10108;50.142;8.724;2022-12-16T02:46:58;-0.70;99.90
19892;DHT22;10108;50.142;8.724;2022-12-16T02:51:50;-0.60;99.90
19892;DHT22;10108;50.142;8.724;2022-12-16T02:54:17;-0.60;99.90
19892;DHT22;10108;50.142;8.724;2022-12-16T02:59:32;-0.70;99.90
19892;DHT22;10108;50.142;8.724;2022-12-16T03:02:10;-0.80;99.90
19892;DHT22;10108;50.142;8.724;2022-12-16T03:04:45;-0.70;99.90
19892;DHT22;10108;50.142;8.724;2022-12-16T03:07:16;-0.70;99.90
19892;DHT22;10108;50.142;8.724;2022-12-16T03:09:44;-0.80;99.90
19892;DHT22;10108;50.142;8.724;2022-12-16T03:12:14;-0.80;99.90
19892;DHT22;10108;50.142;8.724;2022-12-16T03:14:43;-0.80;99.90
19892;DHT22;10108;50.142;8.724;2022-12-16T03:17:12;-0.80;99.90
19892;DHT22;10108;50.142;8.724;2022-12-16T03:19:42;-0.70;99.90
19892;DHT22;10108;50.142;8.724;2022-12-16T03:22:16;-0.70;99.90
19892;DHT22;10108;50.142;8.724;2022-12-16T03:24:43;-0.70;99.90
19892;DHT22;10108;50.142;8.724;2022-12-16T03:27:28;-0.70;99.90
19892;DHT22;10108;50.142;8.724;2022-12-16T03:30:10;-0.70;99.90
19892;DHT22;10108;50.142;8.724;2022-12-16T03:32:47;-0.60;99.90
19892;DHT22;10108;50.142;8.724;2022-12-16T03:35:27;-0.60;99.90
19892;DHT22;10108;50.142;8.724;2022-12-16T03:37:55;-0.60;99.90
19892;DHT22;10108;50.142;8.724;2022-12-16T03:40:23;-0.50;99.90
19892;DHT22;10108;50.142;8.724;2022-12-16T03:42:51;-0.40;99.90
19892;DHT22;10108;50.142;8.724;2022-12-16T03:45:23;-0.40;99.90
19892;DHT22;10108;50.142;8.724;2022-12-16T03:47:51;-0.50;99.90
19892;DHT22;10108;50.142;8.724;2022-12-16T03:50:24;-0.50;99.90
19892;DHT22;10108;50.142;8.724;2022-12-16T03:52:52;-0.60;99.90
19892;DHT22;10108;50.142;8.724;2022-12-16T03:55:19;-0.60;99.90
19892;DHT22;10108;50.142;8.724;2022-12-16T03:57:45;-0.50;99.90
19892;DHT22;10108;50.142;8.724;2022-12-16T04:00:11;-0.60;99.90
19892;DHT22;10108;50.142;8.724;2022-12-16T04:02:41;-0.70;99.90
19892;DHT22;10108;50.142;8.724;2022-12-16T04:05:08;-0.70;99.90
19892;DHT22;10108;50.142;8.724;2022-12-16T04:07:34;-0.80;99.90
19892;DHT22;10108;50.142;8.724;2022-12-16T04:10:00;-0.80;99.90
19892;DHT22;10108;50.142;8.724;2022-12-16T04:12:26;-0.80;99.90
19892;DHT22;10108;50.142;8.724;2022-12-16T04:15:11;-0.80;99.90
19892;DHT22;10108;50.142;8.724;2022-12-16T04:17:56;-0.80;99.90
19892;DHT22;10108;50.142;8.724;2022-12-16T04:20:46;-0.80;99.90
19892;DHT22;10108;50.142;8.724;2022-12-16T04:23:33;-0.70;99.90
19892;DHT22;10108;50.142;8.724;2022-12-16T04:26:18;-0.70;99.90
19892;DHT22;10108;50.142;8.724;2022-12-16T04:28:45;-0.70;99.90
19892;DHT22;10108;50.142;8.724;2022-12-16T04:31:11;-0.60;99.90
19892;DHT22;10108;50.142;8.724;2022-12-16T04:33:37;-0.60;99.90
19892;DHT22;10108;50.142;8.724;2022-12-16T04:36:22;-0.60;99.90
19892;DHT22;10108;50.142;8.724;2022-12-16T04:39:07;-0.60;99.90
19892;DHT22;10108;50.142;8.724;2022-12-16T04:41:53;-0.60;99.90
19892;DHT22;10108;50.142;8.724;2022-12-16T04:44:38;-0.60;99.90
19892;DHT22;10108;50.142;8.724;2022-12-16T04:47:23;-0.60;99.90
19892;DHT22;10108;50.142;8.724;2022-12-16T04:50:08;-0.60;99.90
19892;DHT22;10108;50.142;8.724;2022-12-16T04:52:52;-0.60;99.90
19892;DHT22;10108;50.142;8.724;2022-12-16T04:55:37;-0.60;99.90
19892;DHT22;10108;50.142;8.724;2022-12-16T04:58:22;-0.60;99.90
19892;DHT22;10108;50.142;8.724;2022-12-16T05:01:07;-0.70;99.90
19892;DHT22;10108;50.142;8.724;2022-12-16T05:03:52;-0.70;99.90
19892;DHT22;10108;50.142;8.724;2022-12-16T05:06:37;-0.70;99.90
19892;DHT22;10108;50.142;8.724;2022-12-16T05:09:22;-0.60;99.90
19892;DHT22;10108;50.142;8.724;2022-12-16T05:12:06;-0.60;99.90
19892;DHT22;10108;50.142;8.724;2022-12-16T05:14:51;-0.60;99.90
19892;DHT22;10108;50.142;8.724;2022-12-16T05:17:36;-0.70;99.90
19892;DHT22;10108;50.142;8.724;2022-12-16T05:20:21;-0.80;99.90
19892;DHT22;10108;50.142;8.724;2022-12-16T05:23:06;-0.80;99.90
19892;DHT22;10108;50.142;8.724;2022-12-16T05:25:50;-0.80;99.90
19892;DHT22;10108;50.142;8.724;2022-12-16T05:28:35;-0.90;99.90
19892;DHT22;10108;50.142;8.724;2022-12-16T05:31:20;-0.90;99.90
19892;DHT22;10108;50.142;8.724;2022-12-16T05:34:06;-1.00;99.90
19892;DHT22;10108;50.142;8.724;2022-12-16T05:36:53;-1.10;99.90
19892;DHT22;10108;50.142;8.724;2022-12-16T05:39:38;-1.10;99.90
19892;DHT22;10108;50.142;8.724;2022-12-16T05:42:22;-1.00;99.90
19892;DHT22;10108;50.142;8.724;2022-12-16T05:45:07;-1.00;99.90
19892;DHT22;10108;50.142;8.724;2022-12-16T05:47:52;-1.10;99.90
19892;DHT22;10108;50.142;8.724;2022-12-16T05:50:37;-1.00;99.90
19892;DHT22;10108;50.142;8.724;2022-12-16T05:53:33;-1.00;99.90
19892;DHT22;10108;50.142;8.724;2022-12-16T05:56:17;-1.00;99.90
19892;DHT22;10108;50.142;8.724;2022-12-16T05:59:02;-0.90;99.90
19892;DHT22;10108;50.142;8.724;2022-12-16T06:01:47;-0.90;99.90
19892;DHT22;10108;50.142;8.724;2022-12-16T06:04:32;-1.00;99.90
19892;DHT22;10108;50.142;8.724;2022-12-16T06:07:17;-1.00;99.90
19892;DHT22;10108;50.142;8.724;2022-12-16T06:10:02;-1.00;99.90
19892;DHT22;10108;50.142;8.724;2022-12-16T06:12:47;-1.00;99.90
19892;DHT22;10108;50.142;8.724;2022-12-16T06:15:32;-0.90;99.90
19892;DHT22;10108;50.142;8.724;2022-12-16T06:18:16;-0.90;99.90
19892;DHT22;10108;50.142;8.724;2022-12-16T06:21:02;-1.00;99.90
19892;DHT22;10108;50.142;8.724;2022-12-16T06:23:48;-1.00;99.90
19892;DHT22;10108;50.142;8.724;2022-12-16T06:26:32;-1.10;99.90
19892;DHT22;10108;50.142;8.724;2022-12-16T06:29:17;-1.20;99.90
19892;DHT22;10108;50.142;8.724;2022-12-16T06:32:02;-1.20;99.90
19892;DHT22;10108;50.142;8.724;2022-12-16T06:34:47;-1.20;99.90
19892;DHT22;10108;50.142;8.724;2022-12-16T06:37:32;-1.20;99.90
19892;DHT22;10108;50.142;8.724;2022-12-16T06:40:16;-1.20;99.90
19892;DHT22;10108;50.142;8.724;2022-12-16T06:43:01;-1.20;99.90
19892;DHT22;10108;50.142;8.724;2022-12-16T06:45:46;-1.20;99.90
19892;DHT22;10108;50.142;8.724;2022-12-16T06:48:31;-1.10;99.90
19892;DHT22;10108;50.142;8.724;2022-12-16T06:51:16;-1.00;99.90
19892;DHT22;10108;50.142;8.724;2022-12-16T06:54:01;-1.10;99.90
19892;DHT22;10108;50.142;8.724;2022-12-16T06:56:46;-1.00;99.90
19892;DHT22;10108;50.142;8.724;2022-12-16T06:59:31;-1.00;99.90
19892;DHT22;10108;50.142;8.724;2022-12-16T07:02:16;-1.00;99.90
19892;DHT22;10108;50.142;8.724;2022-12-16T07:05:00;-1.00;99.90
19892;DHT22;10108;50.142;8.724;2022-12-16T07:07:49;-0.90;99.90
19892;DHT22;10108;50.142;8.724;2022-12-16T07:10:35;-0.90;99.90
19892;DHT22;10108;50.142;8.724;2022-12-16T07:13:20;-1.00;99.90
19892;DHT22;10108;50.142;8.724;2022-12-16T07:16:05;-1.00;99.90
19892;DHT22;10108;50.142;8.724;2022-12-16T07:18:50;-1.00;99.90
19892;DHT22;10108;50.142;8.724;2022-12-16T07:21:35;-1.00;99.90
19892;DHT22;10108;50.142;8.724;2022-12-16T07:24:20;-1.00;99.90
19892;DHT22;10108;50.142;8.724;2022-12-16T07:27:05;-1.00;99.90
19892;DHT22;10108;50.142;8.724;2022-12-16T07:29:49;-1.00;99.90
19892;DHT22;10108;50.142;8.724;2022-12-16T07:32:34;-0.90;99.90
19892;DHT22;10108;50.142;8.724;2022-12-16T07:35:19;-0.90;99.90
19892;DHT22;10108;50.142;8.724;2022-12-16T07:38:04;-1.00;99.90
19892;DHT22;10108;50.142;8.724;2022-12-16T07:40:49;-1.00;99.90
19892;DHT22;10108;50.142;8.724;2022-12-16T07:43:34;-1.00;99.90
19892;DHT22;10108;50.142;8.724;2022-12-16T07:46:18;-1.00;99.90
19892;DHT22;10108;50.142;8.724;2022-12-16T07:49:03;-1.00;99.90
19892;DHT22;10108;50.142;8.724;2022-12-16T07:51:48;-1.00;99.90
19892;DHT22;10108;50.142;8.724;2022-12-16T07:54:33;-1.00;99.90
19892;DHT22;10108;50.142;8.724;2022-12-16T07:57:18;-1.00;99.90
19892;DHT22;10108;50.142;8.724;2022-12-16T08:00:03;-0.90;99.90
19892;DHT22;10108;50.142;8.724;2022-12-16T08:02:54;-0.90;99.90
19892;DHT22;10108;50.142;8.724;2022-12-16T08:05:39;-0.80;99.90
19892;DHT22;10108;50.142;8.724;2022-12-16T08:08:24;-0.80;99.90
19892;DHT22;10108;50.142;8.724;2022-12-16T08:11:09;-0.60;99.90
19892;DHT22;10108;50.142;8.724;2022-12-16T08:13:54;-0.60;99.90
19892;DHT22;10108;50.142;8.724;2022-12-16T08:16:39;-0.50;99.90
19892;DHT22;10108;50.142;8.724;2022-12-16T08:19:23;-0.50;99.90
19892;DHT22;10108;50.142;8.724;2022-12-16T08:22:08;-0.40;99.90
19892;DHT22;10108;50.142;8.724;2022-12-16T08:24:53;-0.40;99.90
19892;DHT22;10108;50.142;8.724;2022-12-16T08:27:38;-0.40;99.90
19892;DHT22;10108;50.142;8.724;2022-12-16T08:30:23;-0.40;99.90
19892;DHT22;10108;50.142;8.724;2022-12-16T08:33:07;-0.50;99.90
19892;DHT22;10108;50.142;8.724;2022-12-16T08:35:52;-0.40;99.90
19892;DHT22;10108;50.142;8.724;2022-12-16T08:38:37;-0.40;99.90
19892;DHT22;10108;50.142;8.724;2022-12-16T08:41:22;-0.40;99.90
19892;DHT22;10108;50.142;8.724;2022-12-16T08:44:06;-0.30;99.90
19892;DHT22;10108;50.142;8.724;2022-12-16T08:46:51;-0.30;99.90
19892;DHT22;10108;50.142;8.724;2022-12-16T08:49:36;-0.40;99.90
19892;DHT22;10108;50.142;8.724;2022-12-16T08:52:38;-0.40;99.90
19892;DHT22;10108;50.142;8.724;2022-12-16T08:55:23;-0.30;99.90
19892;DHT22;10108;50.142;8.724;2022-12-16T08:58:07;-0.40;99.90
19892;DHT22;10108;50.142;8.724;2022-12-16T09:00:52;-0.40;99.90
19892;DHT22;10108;50.142;8.724;2022-12-16T09:03:37;-0.30;99.90
19892;DHT22;10108;50.142;8.724;2022-12-16T09:06:24;-0.30;99.90
19892;DHT22;10108;50.142;8.724;2022-12-16T09:09:09;-0.30;99.90
19892;DHT22;10108;50.142;8.724;2022-12-16T09:11:54;-0.30;99.90
19892;DHT22;10108;50.142;8.724;2022-12-16T09:14:39;-0.30;99.90
19892;DHT22;10108;50.142;8.724;2022-12-16T09:17:23;-0.20;99.90
19892;DHT22;10108;50.142;8.724;2022-12-16T09:20:08;-0.10;99.90
19892;DHT22;10108;50.142;8.724;2022-12-16T09:22:54;0.00;99.90
19892;DHT22;10108;50.142;8.724;2022-12-16T09:25:39;0.10;99.90
19892;DHT22;10108;50.142;8.724;2022-12-16T09:28:24;0.10;99.90
19892;DHT22;10108;50.142;8.724;2022-12-16T09:31:09;0.10;99.90
19892;DHT22;10108;50.142;8.724;2022-12-16T09:33:53;0.10;99.90
19892;DHT22;10108;50.142;8.724;2022-12-16T09:36:38;0.20;99.90
19892;DHT22;10108;50.142;8.724;2022-12-16T09:39:23;0.20;99.90
19892;DHT22;10108;50.142;8.724;2022-12-16T09:48:50;0.30;99.90
19892;DHT22;10108;50.142;8.724;2022-12-16T09:51:38;0.40;99.90
19892;DHT22;10108;50.142;8.724;2022-12-16T09:54:26;0.40;99.90
19892;DHT22;10108;50.142;8.724;2022-12-16T09:57:12;0.30;99.90
19892;DHT22;10108;50.142;8.724;2022-12-16T10:00:00;0.20;99.90
19892;DHT22;10108;50.142;8.724;2022-12-16T10:02:49;0.30;99.90
19892;DHT22;10108;50.142;8.724;2022-12-16T10:05:51;0.30;99.90
19892;DHT22;10108;50.142;8.724;2022-12-16T10:08:45;0.30;99.90
19892;DHT22;10108;50.142;8.724;2022-12-16T10:11:57;0.20;99.90
19892;DHT22;10108;50.142;8.724;2022-12-16T10:15:11;0.30;99.90
19892;DHT22;10108;50.142;8.724;2022-12-16T10:17:58;0.30;99.90
19892;DHT22;10108;50.142;8.724;2022-12-16T10:20:50;0.30;99.90
19892;DHT22;10108;50.142;8.724;2022-12-16T10:23:48;0.30;99.90
19892;DHT22;10108;50.142;8.724;2022-12-16T10:27:02;0.40;99.90
19892;DHT22;10108;50.142;8.724;2022-12-16T10:29:49;0.40;99.90
19892;DHT22;10108;50.142;8.724;2022-12-16T10:35:28;0.40;99.90
19892;DHT22;10108;50.142;8.724;2022-12-16T10:41:20;0.40;99.90
19892;DHT22;10108;50.142;8.724;2022-12-16T10:47:03;0.50;99.90
19892;DHT22;10108;50.142;8.724;2022-12-16T10:49:48;0.60;99.90
19892;DHT22;10108;50.142;8.724;2022-12-16T10:52:43;0.60;99.90
19892;DHT22;10108;50.142;8.724;2022-12-16T10:58:59;0.60;99.90
19892;DHT22;10108;50.142;8.724;2022-12-16T11:01:58;0.60;99.90
19892;DHT22;10108;50.142;8.724;2022-12-16T11:04:44;0.70;99.90
19892;DHT22;10108;50.142;8.724;2022-12-16T11:07:33;0.70;99.90
19892;DHT22;10108;50.142;8.724;2022-12-16T11:10:45;0.70;99.90
19892;DHT22;10108;50.142;8.724;2022-12-16T11:13:33;0.80;99.90
19892;DHT22;10108;50.142;8.724;2022-12-16T11:16:26;0.80;99.90
19892;DHT22;10108;50.142;8.724;2022-12-16T11:19:26;0.90;99.90
19892;DHT22;10108;50.142;8.724;2022-12-16T11:25:23;0.90;99.90
19892;DHT22;10108;50.142;8.724;2022-12-16T11:28:12;0.90;99.90
19892;DHT22;10108;50.142;8.724;2022-12-16T11:31:00;0.90;99.90
19892;DHT22;10108;50.142;8.724;2022-12-16T11:33:48;0.90;99.90
19892;DHT22;10108;50.142;8.724;2022-12-16T11:36:35;0.90;99.90
19892;DHT22;10108;50.142;8.724;2022-12-16T11:39:22;0.90;99.90
19892;DHT22;10108;50.142;8.724;2022-12-16T11:42:14;1.00;99.90
19892;DHT22;10108;50.142;8.724;2022-12-16T11:45:17;1.00;99.90
19892;DHT22;10108;50.142;8.724;2022-12-16T11:48:42;1.10;99.90
19892;DHT22;10108;50.142;8.724;2022-12-16T11:51:29;1.10;99.90
19892;DHT22;10108;50.142;8.724;2022-12-16T11:54:27;1.10;99.90
19892;DHT22;10108;50.142;8.724;2022-12-16T11:57:23;1.20;99.90
19892;DHT22;10108;50.142;8.724;2022-12-16T12:00:18;1.20;99.90
19892;DHT22;10108;50.142;8.724;2022-12-16T12:03:11;1.10;99.90
19892;DHT22;10108;50.142;8.724;2022-12-16T12:12:30;1.10;99.90
19892;DHT22;10108;50.142;8.724;2022-12-16T12:15:33;1.20;99.90
19892;DHT22;10108;50.142;8.724;2022-12-16T12:18:51;1.30;99.90
19892;DHT22;10108;50.142;8.724;2022-12-16T12:21:50;1.30;99.90
19892;DHT22;10108;50.142;8.724;2022-12-16T12:24:52;1.30;99.90
19892;DHT22;10108;50.142;8.724;2022-12-16T12:28:11;1.30;99.90
19892;DHT22;10108;50.142;8.724;2022-12-16T12:31:31;1.30;99.90
19892;DHT22;10108;50.142;8.724;2022-12-16T12:34:34;1.40;99.90
19892;DHT22;10108;50.142;8.724;2022-12-16T12:37:25;1.30;99.90
19892;DHT22;10108;50.142;8.724;2022-12-16T12:46:42;1.40;99.90
19892;DHT22;10108;50.142;8.724;2022-12-16T12:55:43;1.40;99.90
19892;DHT22;10108;50.142;8.724;2022-12-16T12:58:31;1.40;99.90
19892;DHT22;10108;50.142;8.724;2022-12-16T13:01:20;1.50;99.90
19892;DHT22;10108;50.142;8.724;2022-12-16T13:04:11;1.40;99.90
19892;DHT22;10108;50.142;8.724;2022-12-16T13:06:58;1.40;99.90
19892;DHT22;10108;50.142;8.724;2022-12-16T13:09:44;1.40;99.90
19892;DHT22;10108;50.142;8.724;2022-12-16T13:12:33;1.50;99.90
19892;DHT22;10108;50.142;8.724;2022-12-16T13:15:37;1.40;99.90
19892;DHT22;10108;50.142;8.724;2022-12-16T13:18:40;1.50;99.90
19892;DHT22;10108;50.142;8.724;2022-12-16T13:27:12;1.50;99.90
19892;DHT22;10108;50.142;8.724;2022-12-16T13:32:58;1.50;99.90
19892;DHT22;10108;50.142;8.724;2022-12-16T13:36:02;1.50;99.90
19892;DHT22;10108;50.142;8.724;2022-12-16T13:38:49;1.50;99.90
19892;DHT22;10108;50.142;8.724;2022-12-16T13:50:42;1.50;99.90
19892;DHT22;10108;50.142;8.724;2022-12-16T13:53:42;1.50;99.90
19892;DHT22;10108;50.142;8.724;2022-12-16T13:56:33;1.60;99.90
19892;DHT22;10108;50.142;8.724;2022-12-16T13:59:24;1.50;99.90
19892;DHT22;10108;50.142;8.724;2022-12-16T14:02:30;1.50;99.90
19892;DHT22;10108;50.142;8.724;2022-12-16T14:05:22;1.60;99.90
19892;DHT22;10108;50.142;8.724;2022-12-16T14:08:15;1.60;99.90
19892;DHT22;10108;50.142;8.724;2022-12-16T14:11:02;1.60;99.90
19892;DHT22;10108;50.142;8.724;2022-12-16T14:13:54;1.60;99.90
19892;DHT22;10108;50.142;8.724;2022-12-16T14:16:51;1.60;99.90
19892;DHT22;10108;50.142;8.724;2022-12-16T14:20:02;1.50;99.90
19892;DHT22;10108;50.142;8.724;2022-12-16T14:23:17;1.50;99.90
19892;DHT22;10108;50.142;8.724;2022-12-16T14:26:04;1.50;99.90
19892;DHT22;10108;50.142;8.724;2022-12-16T14:28:48;1.50;99.90
19892;DHT22;10108;50.142;8.724;2022-12-16T14:31:39;1.50;99.90
19892;DHT22;10108;50.142;8.724;2022-12-16T14:34:33;1.50;99.90
19892;DHT22;10108;50.142;8.724;2022-12-16T14:37:23;1.50;99.90
19892;DHT22;10108;50.142;8.724;2022-12-16T14:40:38;1.50;99.90
19892;DHT22;10108;50.142;8.724;2022-12-16T14:43:24;1.50;99.90
19892;DHT22;10108;50.142;8.724;2022-12-16T14:46:27;1.50;99.90
19892;DHT22;10108;50.142;8.724;2022-12-16T14:49:26;1.50;99.90
19892;DHT22;10108;50.142;8.724;2022-12-16T14:55:28;1.50;99.90
19892;DHT22;10108;50.142;8.724;2022-12-16T14:58:19;1.40;99.90
19892;DHT22;10108;50.142;8.724;2022-12-16T15:01:15;1.40;99.90
19892;DHT22;10108;50.142;8.724;2022-12-16T15:04:04;1.40;99.90
19892;DHT22;10108;50.142;8.724;2022-12-16T15:06:52;1.40;99.90
19892;DHT22;10108;50.142;8.724;2022-12-16T15:09:41;1.40;99.90
19892;DHT22;10108;50.142;8.724;2022-12-16T15:12:31;1.40;99.90
19892;DHT22;10108;50.142;8.724;2022-12-16T15:15:37;1.40;99.90
19892;DHT22;10108;50.142;8.724;2022-12-16T15:18:39;1.40;99.90
19892;DHT22;10108;50.142;8.724;2022-12-16T15:21:26;1.40;99.90
19892;DHT22;10108;50.142;8.724;2022-12-16T15:24:17;1.40;99.90
19892;DHT22;10108;50.142;8.724;2022-12-16T15:30:33;1.40;99.90
19892;DHT22;10108;50.142;8.724;2022-12-16T15:33:21;1.30;99.90
19892;DHT22;10108;50.142;8.724;2022-12-16T15:36:33;1.30;99.90
19892;DHT22;10108;50.142;8.724;2022-12-16T15:39:34;1.30;99.90
19892;DHT22;10108;50.142;8.724;2022-12-16T15:42:23;1.30;99.90
19892;DHT22;10108;50.142;8.724;2022-12-16T15:45:25;1.30;99.90
19892;DHT22;10108;50.142;8.724;2022-12-16T15:51:20;1.20;99.90
19892;DHT22;10108;50.142;8.724;2022-12-16T15:54:16;1.20;99.90
19892;DHT22;10108;50.142;8.724;2022-12-16T15:57:02;1.20;99.90
19892;DHT22;10108;50.142;8.724;2022-12-16T15:59:58;1.10;99.90
19892;DHT22;10108;50.142;8.724;2022-12-16T16:02:47;1.20;99.90
19892;DHT22;10108;50.142;8.724;2022-12-16T16:05:33;1.10;99.90
19892;DHT22;10108;50.142;8.724;2022-12-16T16:08:19;1.10;99.90
19892;DHT22;10108;50.142;8.724;2022-12-16T16:11:04;1.10;99.90
19892;DHT22;10108;50.142;8.724;2022-12-16T16:13:56;1.00;99.90
19892;DHT22;10108;50.142;8.724;2022-12-16T16:16:41;1.00;99.90
19892;DHT22;10108;50.142;8.724;2022-12-16T16:19:26;1.00;99.90
19892;DHT22;10108;50.142;8.724;2022-12-16T16:22:14;1.00;99.90
19892;DHT22;10108;50.142;8.724;2022-12-16T16:24:59;1.00;99.90
19892;DHT22;10108;50.142;8.724;2022-12-16T16:27:44;1.00;99.90
19892;DHT22;10108;50.142;8.724;2022-12-16T16:30:29;0.90;99.90
19892;DHT22;10108;50.142;8.724;2022-12-16T16:33:13;0.90;99.90
19892;DHT22;10108;50.142;8.724;2022-12-16T16:35:58;0.90;99.90
19892;DHT22;10108;50.142;8.724;2022-12-16T16:38:43;0.80;99.90
19892;DHT22;10108;50.142;8.724;2022-12-16T16:41:28;0.80;99.90
19892;DHT22;10108;50.142;8.724;2022-12-16T16:44:13;0.70;99.90
19892;DHT22;10108;50.142;8.724;2022-12-16T16:46:58;0.80;99.90
19892;DHT22;10108;50.142;8.724;2022-12-16T16:49:45;0.70;99.90
19892;DHT22;10108;50.142;8.724;2022-12-16T16:52:31;0.70;99.90
19892;DHT22;10108;50.142;8.724;2022-12-16T16:55:19;0.60;99.90
19892;DHT22;10108;50.142;8.724;2022-12-16T16:58:12;0.60;99.90
19892;DHT22;10108;50.142;8.724;2022-12-16T17:00:58;0.60;99.90
19892;DHT22;10108;50.142;8.724;2022-12-16T17:03:42;0.70;99.90
19892;DHT22;10108;50.142;8.724;2022-12-16T17:06:27;0.60;99.90
19892;DHT22;10108;50.142;8.724;2022-12-16T17:09:12;0.70;99.90
19892;DHT22;10108;50.142;8.724;2022-12-16T17:11:57;0.70;99.90
19892;DHT22;10108;50.142;8.724;2022-12-16T17:14:42;0.60;99.90
19892;DHT22;10108;50.142;8.724;2022-12-16T17:17:27;0.70;99.90
19892;DHT22;10108;50.142;8.724;2022-12-16T17:20:15;0.60;99.90
19892;DHT22;10108;50.142;8.724;2022-12-16T17:23:00;0.60;99.90
19892;DHT22;10108;50.142;8.724;2022-12-16T17:25:45;0.60;99.90
19892;DHT22;10108;50.142;8.724;2022-12-16T17:28:30;0.60;99.90
19892;DHT22;10108;50.142;8.724;2022-12-16T17:31:14;0.60;99.90
19892;DHT22;10108;50.142;8.724;2022-12-16T17:33:59;0.60;99.90
19892;DHT22;10108;50.142;8.724;2022-12-16T17:36:44;0.60;99.90
19892;DHT22;10108;50.142;8.724;2022-12-16T17:39:29;0.60;99.90
19892;DHT22;10108;50.142;8.724;2022-12-16T17:42:14;0.60;99.90
19892;DHT22;10108;50.142;8.724;2022-12-16T17:44:59;0.50;99.90
19892;DHT22;10108;50.142;8.724;2022-12-16T17:47:44;0.50;99.90
19892;DHT22;10108;50.142;8.724;2022-12-16T17:50:29;0.50;99.90
19892;DHT22;10108;50.142;8.724;2022-12-16T17:53:14;0.50;99.90
19892;DHT22;10108;50.142;8.724;2022-12-16T17:56:05;0.50;99.90
19892;DHT22;10108;50.142;8.724;2022-12-16T17:58:50;0.40;99.90
19892;DHT22;10108;50.142;8.724;2022-12-16T18:01:35;0.50;99.90
19892;DHT22;10108;50.142;8.724;2022-12-16T18:04:19;0.50;99.90
19892;DHT22;10108;50.142;8.724;2022-12-16T18:07:04;0.50;99.90
19892;DHT22;10108;50.142;8.724;2022-12-16T18:09:49;0.40;99.90
19892;DHT22;10108;50.142;8.724;2022-12-16T18:12:34;0.50;99.90
19892;DHT22;10108;50.142;8.724;2022-12-16T18:15:19;0.50;99.90
19892;DHT22;10108;50.142;8.724;2022-12-16T18:18:04;0.40;99.90
19892;DHT22;10108;50.142;8.724;2022-12-16T18:20:49;0.40;99.90
19892;DHT22;10108;50.142;8.724;2022-12-16T18:23:33;0.30;99.90
19892;DHT22;10108;50.142;8.724;2022-12-16T18:26:20;0.30;99.90
19892;DHT22;10108;50.142;8.724;2022-12-16T18:29:04;0.30;99.90
19892;DHT22;10108;50.142;8.724;2022-12-16T18:31:49;0.30;99.90
19892;DHT22;10108;50.142;8.724;2022-12-16T18:34:34;0.30;99.90
19892;DHT22;10108;50.142;8.724;2022-12-16T18:37:19;0.30;99.90
19892;DHT22;10108;50.142;8.724;2022-12-16T18:40:05;0.30;99.90
19892;DHT22;10108;50.142;8.724;2022-12-16T18:42:50;0.30;99.90
19892;DHT22;10108;50.142;8.724;2022-12-16T18:45:34;0.30;99.90
19892;DHT22;10108;50.142;8.724;2022-12-16T18:48:19;0.30;99.90
19892;DHT22;10108;50.142;8.724;2022-12-16T18:51:04;0.20;99.90